Terminal Aerodrome Forecast
Issued by NWS

Home | Current Version | Previous Version | Text Only | Print | Product List | Glossary On
Versions: 1 2 3 4 5 6 7 8 9 10 11 12
000
FTUS43 KGRR 251140
TAFBTL
TAF
KBTL 251140Z 2512/2612 12008KT P6SM BKN090
     FM251800 14012KT P6SM OVC050
     FM260600 16007KT 4SM BR OVC050=

USA.gov is the U.S. government's official web portal to all federal, state and local government web resources and services.